Time;durP1;ratioP1;P1;durP2;ratioP2;P2;SDS_P1;SDS_P2;PMS_P1;PMS_P2;Temp;Humidity;BMP_temperature;BMP_pressure;BME280_temperature;BME280_humidity;BME280_pressure;Samples;Min_cycle;Max_cycle;Signal;HPM_P1;HPM_P2
2019/11/22 00:00:54;;;;;;;7.1;5.5;;;;;;;3.42;84.51465;929.4663;;;;
2019/11/22 00:03:21;;;;;;;8.3;5.5;;;;;;;3.39;84.38574;929.467;;;;
2019/11/22 00:05:49;;;;;;;8.2;5.3;;;;;;;3.4;84.24121;929.4822;;;;
2019/11/22 00:08:16;;;;;;;10.9;6.1;;;;;;;3.09;85.19043;929.4978;;;;
2019/11/22 00:10:40;;;;;;;10.1;6.6;;;;;;;2.81;86.82813;929.4094;;;;
2019/11/22 00:13:08;;;;;;;11.8;6.9;;;;;;;2.83;87.29297;929.3981;;;;
2019/11/22 00:15:36;;;;;;;8.8;5.7;;;;;;;2.79;87.41699;929.5122;;;;
2019/11/22 00:18:04;;;;;;;6.5;4.5;;;;;;;2.66;88.05176;929.4651;;;;
2019/11/22 00:20:31;;;;;;;5.9;4.2;;;;;;;2.51;89.16309;929.498;;;;
2019/11/22 00:22:59;;;;;;;5.8;4.3;;;;;;;2.52;89.50293;929.5164;;;;
2019/11/22 00:25:24;;;;;;;6.7;4.7;;;;;;;2.54;89.29395;929.5162;;;;
2019/11/22 00:27:58;;;;;;;6.9;4.3;;;;;;;2.61;88.78223;929.4811;;;;
2019/11/22 00:30:24;;;;;;;6;4.2;;;;;;;2.75;87.98047;929.5058;;;;
2019/11/22 00:34:19;;;;;;;7.3;4.7;;;;;;;2.7;88.54102;929.573;;;;
2019/11/22 00:36:50;;;;;;;7.9;4.5;;;;;;;2.71;88.07422;929.5136;;;;
2019/11/22 00:39:29;;;;;;;5.2;4.1;;;;;;;2.72;87.62793;929.5342;;;;
2019/11/22 00:41:55;;;;;;;6.3;3.9;;;;;;;2.86;87.17578;929.5292;;;;
2019/11/22 00:44:24;;;;;;;6.8;3.8;;;;;;;3.11;85.82227;929.5525;;;;
2019/11/22 00:47:29;;;;;;;6.2;4;;;;;;;3.23;84.91309;929.5413;;;;
2019/11/22 00:49:54;;;;;;;5.4;3.6;;;;;;;3.25;84.39063;929.5733;;;;
2019/11/22 00:52:21;;;;;;;5.3;3.8;;;;;;;3.13;84.48926;929.56;;;;
2019/11/22 00:54:44;;;;;;;7.8;3.7;;;;;;;2.98;85.08887;929.5586;;;;
2019/11/22 00:57:31;;;;;;;4.3;3.2;;;;;;;2.87;85.80664;929.5208;;;;
2019/11/22 00:59:55;;;;;;;4.7;2.7;;;;;;;2.93;85.69629;929.5142;;;;
2019/11/22 01:02:26;;;;;;;4.6;3.2;;;;;;;3.03;84.96484;929.4139;;;;
2019/11/22 01:04:50;;;;;;;6.2;3.3;;;;;;;3.13;84.43457;929.4658;;;;
2019/11/22 01:07:20;;;;;;;4.4;3;;;;;;;3.15;83.82324;929.5095;;;;
2019/11/22 01:09:51;;;;;;;4.5;3.2;;;;;;;3.23;83.32129;929.3661;;;;
2019/11/22 01:12:14;;;;;;;4.8;3.2;;;;;;;;;;;;;
2019/11/22 01:14:40;;;;;;;4.6;2.5;;;;;;;;;;;;;
2019/11/22 01:17:04;;;;;;;3.8;2.7;;;;;;;;;;;;;
2019/11/22 01:21:55;;;;;;;5.5;3;;;;;;;;;;;;;
2019/11/22 01:24:38;;;;;;;4.8;2.6;;;;;;;;;;;;;
2019/11/22 01:26:54;;;;;;;4.6;2.2;;;;;;;;;;;;;
2019/11/22 01:29:13;;;;;;;3.5;2.2;;;;;;;;;;;;;
2019/11/22 01:31:38;;;;;;;4;2.1;;;;;;;;;;;;;
2019/11/22 01:34:02;;;;;;;3.1;1.9;;;;;;;;;;;;;
2019/11/22 01:36:27;;;;;;;2.7;1.9;;;;;;;;;;;;;
2019/11/22 01:38:53;;;;;;;2.5;1.8;;;;;;;;;;;;;
2019/11/22 01:41:18;;;;;;;3.1;1.8;;;;;;;;;;;;;
2019/11/22 01:43:44;;;;;;;4.2;1.9;;;;;;;;;;;;;
2019/11/22 01:46:08;;;;;;;3.1;2.1;;;;;;;;;;;;;
2019/11/22 01:48:36;;;;;;;3.6;1.8;;;;;;;;;;;;;
2019/11/22 01:50:58;;;;;;;3.7;2.2;;;;;;;;;;;;;
2019/11/22 01:53:24;;;;;;;3.4;2;;;;;;;;;;;;;
2019/11/22 01:55:50;;;;;;;3.4;1.9;;;;;;;;;;;;;
2019/11/22 01:58:16;;;;;;;3.6;2.2;;;;;;;;;;;;;
2019/11/22 02:00:42;;;;;;;3.7;2.5;;;;;;;;;;;;;
2019/11/22 02:03:08;;;;;;;4.2;2.3;;;;;;;;;;;;;
2019/11/22 02:05:33;;;;;;;3.6;2.5;;;;;;;;;;;;;
2019/11/22 02:07:58;;;;;;;4.8;2.6;;;;;;;;;;;;;
2019/11/22 02:10:24;;;;;;;3.6;2.2;;;;;;;;;;;;;
2019/11/22 02:12:48;;;;;;;2.8;2;;;;;;;;;;;;;
2019/11/22 02:15:14;;;;;;;3.5;1.9;;;;;;;;;;;;;
2019/11/22 02:17:48;;;;;;;2.2;1.6;;;;;;;;;;;;;
2019/11/22 02:20:08;;;;;;;3.2;1.8;;;;;;;;;;;;;
2019/11/22 02:22:32;;;;;;;2.4;1.9;;;;;;;;;;;;;
2019/11/22 02:25:00;;;;;;;4.4;1.7;;;;;;;;;;;;;
2019/11/22 02:27:24;;;;;;;2.4;1.6;;;;;;;;;;;;;
2019/11/22 02:29:49;;;;;;;2.1;1.2;;;;;;;;;;;;;
2019/11/22 02:34:04;;;;;;;2.3;1.7;;;;;;;;;;;;;
2019/11/22 02:34:44;;;;;;;2.4;1.7;;;;;;;;;;;;;
2019/11/22 02:37:09;;;;;;;2.7;1.6;;;;;;;;;;;;;
2019/11/22 02:39:31;;;;;;;3.2;2;;;;;;;;;;;;;
2019/11/22 02:41:54;;;;;;;3.1;2.4;;;;;;;;;;;;;
2019/11/22 02:44:18;;;;;;;2.9;2.2;;;;;;;;;;;;;
2019/11/22 02:46:46;;;;;;;3.6;2.3;;;;;;;;;;;;;
2019/11/22 02:49:11;;;;;;;4.5;2.5;;;;;;;;;;;;;
2019/11/22 02:51:36;;;;;;;4.2;2.4;;;;;;;;;;;;;
2019/11/22 02:56:30;;;;;;;3.3;2.3;;;;;;;;;;;;;
2019/11/22 02:58:53;;;;;;;4;2.6;;;;;;;;;;;;;
2019/11/22 03:01:17;;;;;;;2.9;2.4;;;;;;;;;;;;;
2019/11/22 03:03:46;;;;;;;3.5;2.1;;;;;;;;;;;;;
2019/11/22 03:06:08;;;;;;;3.2;1.9;;;;;;;;;;;;;
2019/11/22 03:08:35;;;;;;;1.9;1.7;;;;;;;;;;;;;
2019/11/22 03:11:05;;;;;;;1.8;1.5;;;;;;;;;;;;;
2019/11/22 03:13:26;;;;;;;3.5;2;;;;;;;;;;;;;
2019/11/22 03:15:51;;;;;;;3.2;2.1;;;;;;;;;;;;;
2019/11/22 03:18:16;;;;;;;2.6;1.8;;;;;;;;;;;;;
2019/11/22 03:20:45;;;;;;;2.5;1.5;;;;;;;;;;;;;
2019/11/22 03:23:07;;;;;;;2.3;1.5;;;;;;;;;;;;;
2019/11/22 03:25:32;;;;;;;2.1;1.6;;;;;;;;;;;;;
2019/11/22 03:27:57;;;;;;;2.2;1.7;;;;;;;;;;;;;
2019/11/22 03:30:26;;;;;;;2.4;1.4;;;;;;;;;;;;;
2019/11/22 03:32:48;;;;;;;1.8;1.4;;;;;;;;;;;;;
2019/11/22 03:35:15;;;;;;;2.6;1.4;;;;;;;;;;;;;
2019/11/22 03:37:47;;;;;;;1.6;1.1;;;;;;;;;;;;;
2019/11/22 03:40:06;;;;;;;2.3;1.2;;;;;;;;;;;;;
2019/11/22 03:42:32;;;;;;;1.9;1.3;;;;;;;;;;;;;
2019/11/22 03:44:59;;;;;;;2.7;1.5;;;;;;;;;;;;;
2019/11/22 03:47:28;;;;;;;1.5;1.1;;;;;;;;;;;;;
2019/11/22 03:49:50;;;;;;;2.6;1.6;;;;;;;;;;;;;
2019/11/22 03:52:14;;;;;;;1.9;1;;;;;;;;;;;;;
2019/11/22 03:54:41;;;;;;;2.1;1;;;;;;;;;;;;;
2019/11/22 03:57:10;;;;;;;2.9;1.3;;;;;;;;;;;;;
2019/11/22 03:59:39;;;;;;;1.5;1;;;;;;;;;;;;;
2019/11/22 04:02:31;;;;;;;1.7;1;;;;;;;3.08;82.81934;929.6398;;;;
2019/11/22 04:04:57;;;;;;;2;1.4;;;;;;;3.18;82.2998;929.7004;;;;
2019/11/22 04:07:30;;;;;;;2;1.2;;;;;;;3.22;82.0957;929.6616;;;;
2019/11/22 04:09:55;;;;;;;1.7;1.3;;;;;;;3.18;82.14453;929.71;;;;
2019/11/22 04:12:26;;;;;;;2.8;1.6;;;;;;;3.21;82.50879;929.7258;;;;
2019/11/22 04:14:54;;;;;;;3.9;2.1;;;;;;;3.08;82.65137;929.6296;;;;
2019/11/22 04:17:22;;;;;;;3.4;1.9;;;;;;;3.05;82.85938;929.5614;;;;
2019/11/22 04:19:54;;;;;;;3.7;2;;;;;;;3.07;82.69434;929.6853;;;;
2019/11/22 04:22:21;;;;;;;5.1;1.9;;;;;;;3.17;82.04199;929.6342;;;;
2019/11/22 04:24:45;;;;;;;3.9;2.1;;;;;;;3.18;81.85254;929.6258;;;;
2019/11/22 04:27:12;;;;;;;6.6;2.7;;;;;;;3.02;82.87598;929.6906;;;;
2019/11/22 04:29:38;;;;;;;4.6;2.4;;;;;;;2.85;84.11914;929.6586;;;;
2019/11/22 04:32:14;;;;;;;5.3;2.7;;;;;;;;;;;;;
2019/11/22 04:34:28;;;;;;;4.7;3;;;;;;;;;;;;;
2019/11/22 04:36:52;;;;;;;6.6;3.5;;;;;;;;;;;;;
2019/11/22 04:39:31;;;;;;;7.5;3.9;;;;;;;;;;;;;
2019/11/22 04:41:43;;;;;;;7.4;3.9;;;;;;;;;;;;;
2019/11/22 04:44:09;;;;;;;6.3;3.3;;;;;;;;;;;;;
2019/11/22 04:46:32;;;;;;;4.4;2.7;;;;;;;;;;;;;
2019/11/22 04:49:01;;;;;;;7;4.1;;;;;;;;;;;;;
2019/11/22 04:51:23;;;;;;;9.3;3.8;;;;;;;;;;;;;
2019/11/22 04:53:49;;;;;;;4.5;2.8;;;;;;;;;;;;;
2019/11/22 04:56:15;;;;;;;6.8;3.3;;;;;;;;;;;;;
2019/11/22 04:58:39;;;;;;;6.2;3.6;;;;;;;;;;;;;
2019/11/22 05:01:06;;;;;;;13.5;7.4;;;;;;;;;;;;;
2019/11/22 05:03:31;;;;;;;24.3;12.9;;;;;;;;;;;;;
2019/11/22 05:05:55;;;;;;;19.4;11.4;;;;;;;;;;;;;
2019/11/22 05:08:24;;;;;;;12.6;7.9;;;;;;;;;;;;;
2019/11/22 05:10:47;;;;;;;12.6;8.4;;;;;;;;;;;;;
2019/11/22 05:13:11;;;;;;;10.4;6.4;;;;;;;;;;;;;
2019/11/22 05:15:37;;;;;;;6.9;4.9;;;;;;;;;;;;;
2019/11/22 05:18:08;;;;;;;10.6;5.4;;;;;;;;;;;;;
2019/11/22 05:20:27;;;;;;;6.5;3.6;;;;;;;;;;;;;
2019/11/22 05:22:53;;;;;;;5.2;2.7;;;;;;;;;;;;;
2019/11/22 05:25:25;;;;;;;4.8;2.3;;;;;;;;;;;;;
2019/11/22 05:27:50;;;;;;;3.8;1.5;;;;;;;;;;;;;
2019/11/22 05:30:08;;;;;;;2.7;1.1;;;;;;;;;;;;;
2019/11/22 05:32:34;;;;;;;2.5;1.1;;;;;;;;;;;;;
2019/11/22 05:34:58;;;;;;;3.8;2;;;;;;;;;;;;;
2019/11/22 05:37:29;;;;;;;4.5;2.6;;;;;;;;;;;;;
2019/11/22 05:39:53;;;;;;;5.3;3.7;;;;;;;;;;;;;
2019/11/22 05:42:26;;;;;;;4.4;3;;;;;;;;;;;;;
2019/11/22 05:44:45;;;;;;;7.4;5.8;;;;;;;;;;;;;
2019/11/22 05:47:10;;;;;;;6.4;4.5;;;;;;;;;;;;;
2019/11/22 05:49:38;;;;;;;4.1;2;;;;;;;;;;;;;
2019/11/22 05:52:01;;;;;;;1.7;1.5;;;;;;;;;;;;;
2019/11/22 05:54:26;;;;;;;4.6;3;;;;;;;;;;;;;
2019/11/22 05:56:51;;;;;;;4.3;3;;;;;;;;;;;;;
2019/11/22 05:59:25;;;;;;;3.6;2.6;;;;;;;;;;;;;
2019/11/22 06:01:42;;;;;;;5.7;2.8;;;;;;;;;;;;;
2019/11/22 06:04:07;;;;;;;4.7;2.6;;;;;;;;;;;;;
2019/11/22 06:06:33;;;;;;;5;2.6;;;;;;;;;;;;;
2019/11/22 06:08:59;;;;;;;5.3;2.7;;;;;;;;;;;;;
2019/11/22 06:11:24;;;;;;;7.9;3.2;;;;;;;;;;;;;
2019/11/22 06:13:49;;;;;;;4.2;2.8;;;;;;;;;;;;;
2019/11/22 06:16:14;;;;;;;4.2;2.5;;;;;;;;;;;;;
2019/11/22 06:18:42;;;;;;;3.1;2.2;;;;;;;;;;;;;
2019/11/22 06:21:04;;;;;;;4.8;2.2;;;;;;;;;;;;;
2019/11/22 06:23:29;;;;;;;3.7;2.3;;;;;;;;;;;;;
2019/11/22 06:25:54;;;;;;;6.4;2.8;;;;;;;;;;;;;
2019/11/22 06:28:23;;;;;;;4.7;2.7;;;;;;;;;;;;;
2019/11/22 06:30:45;;;;;;;5;3.2;;;;;;;;;;;;;
2019/11/22 06:33:12;;;;;;;10.3;4;;;;;;;;;;;;;
2019/11/22 06:35:36;;;;;;;6.9;4.3;;;;;;;;;;;;;
2019/11/22 06:38:02;;;;;;;6.7;4.2;;;;;;;;;;;;;
2019/11/22 06:40:27;;;;;;;5.7;3;;;;;;;;;;;;;
2019/11/22 06:42:54;;;;;;;6.1;2.8;;;;;;;;;;;;;
2019/11/22 06:45:20;;;;;;;9.8;6.8;;;;;;;;;;;;;
2019/11/22 06:47:44;;;;;;;14.9;9.1;;;;;;;;;;;;;
2019/11/22 06:50:09;;;;;;;13.2;8;;;;;;;;;;;;;
2019/11/22 06:52:42;;;;;;;10;7.9;;;;;;;;;;;;;
2019/11/22 06:55:05;;;;;;;15.4;9.5;;;;;;;;;;;;;
2019/11/22 06:57:30;;;;;;;17.7;9.6;;;;;;;;;;;;;
2019/11/22 06:59:53;;;;;;;25.5;16.3;;;;;;;;;;;;;
2019/11/22 07:02:19;;;;;;;30.1;19.4;;;;;;;;;;;;;
2019/11/22 07:04:43;;;;;;;26.1;16.2;;;;;;;;;;;;;
2019/11/22 07:07:07;;;;;;;31.9;14.4;;;;;;;;;;;;;
2019/11/22 07:09:33;;;;;;;22.8;15.4;;;;;;;;;;;;;
2019/11/22 07:11:58;;;;;;;29;20.5;;;;;;;;;;;;;
2019/11/22 07:14:26;;;;;;;34.2;21.9;;;;;;;;;;;;;
2019/11/22 07:16:49;;;;;;;21.8;14.3;;;;;;;;;;;;;
2019/11/22 07:19:14;;;;;;;28.7;18.4;;;;;;;;;;;;;
2019/11/22 07:21:43;;;;;;;24;17.5;;;;;;;;;;;;;
2019/11/22 07:24:09;;;;;;;22.1;15.5;;;;;;;;;;;;;
2019/11/22 07:26:31;;;;;;;21.1;14.1;;;;;;;;;;;;;
2019/11/22 07:28:57;;;;;;;26.5;14.1;;;;;;;;;;;;;
2019/11/22 07:31:21;;;;;;;24.2;14.5;;;;;;;;;;;;;
2019/11/22 07:33:45;;;;;;;20.3;14;;;;;;;;;;;;;
2019/11/22 07:36:12;;;;;;;27.4;16.4;;;;;;;;;;;;;
2019/11/22 07:38:37;;;;;;;39.4;19.1;;;;;;;;;;;;;
2019/11/22 07:41:03;;;;;;;31.5;18.2;;;;;;;;;;;;;
2019/11/22 07:43:30;;;;;;;30.3;16.3;;;;;;;;;;;;;
2019/11/22 07:45:55;;;;;;;25.9;14.3;;;;;;;;;;;;;
2019/11/22 07:48:21;;;;;;;38.8;14.9;;;;;;;;;;;;;
2019/11/22 07:50:47;;;;;;;31.5;14.4;;;;;;;;;;;;;
2019/11/22 07:53:11;;;;;;;28.6;14.1;;;;;;;;;;;;;
2019/11/22 07:55:42;;;;;;;22.8;11.8;;;;;;;;;;;;;
2019/11/22 07:58:03;;;;;;;41.9;13.7;;;;;;;;;;;;;
2019/11/22 08:00:29;;;;;;;19.8;9.2;;;;;;;;;;;;;
2019/11/22 08:03:11;;;;;;;17.9;10.7;;;;;;;;;;;;;
2019/11/22 08:05:37;;;;;;;32.2;9.8;;;;;;;;;;;;;
2019/11/22 08:08:04;;;;;;;23;9.4;;;;;;;;;;;;;
2019/11/22 08:10:27;;;;;;;16.5;9;;;;;;;;;;;;;
2019/11/22 08:12:54;;;;;;;15.1;8.4;;;;;;;;;;;;;
2019/11/22 08:15:18;;;;;;;17.6;9.8;;;;;;;;;;;;;
2019/11/22 08:17:46;;;;;;;21;11.2;;;;;;;;;;;;;
2019/11/22 08:20:10;;;;;;;17.3;11.1;;;;;;;;;;;;;
2019/11/22 08:22:35;;;;;;;16.8;9.8;;;;;;;;;;;;;
2019/11/22 08:25:09;;;;;;;13.4;8.1;;;;;;;;;;;;;
2019/11/22 08:27:38;;;;;;;12.5;6.9;;;;;;;;;;;;;
2019/11/22 08:30:02;;;;;;;8.9;4.9;;;;;;;;;;;;;
2019/11/22 08:32:27;;;;;;;15.1;5;;;;;;;;;;;;;
2019/11/22 08:34:52;;;;;;;10.2;5.3;;;;;;;;;;;;;
2019/11/22 08:37:19;;;;;;;12.2;7.2;;;;;;;;;;;;;
2019/11/22 08:39:43;;;;;;;15.8;6.9;;;;;;;;;;;;;
2019/11/22 08:42:08;;;;;;;21.9;7.6;;;;;;;;;;;;;
2019/11/22 08:44:33;;;;;;;18.5;8.1;;;;;;;;;;;;;
2019/11/22 08:46:59;;;;;;;23.1;12.2;;;;;;;;;;;;;
2019/11/22 08:49:23;;;;;;;25.4;15;;;;;;;;;;;;;
2019/11/22 08:51:51;;;;;;;29.1;19;;;;;;;;;;;;;
2019/11/22 08:54:13;;;;;;;39.7;22.4;;;;;;;;;;;;;
2019/11/22 08:56:40;;;;;;;42;23.6;;;;;;;;;;;;;
2019/11/22 08:59:07;;;;;;;36.8;21.4;;;;;;;;;;;;;
2019/11/22 09:01:31;;;;;;;25.4;14;;;;;;;;;;;;;
2019/11/22 09:06:36;;;;;;;21.1;12.1;;;;;;;;;;;;;
2019/11/22 09:08:55;;;;;;;24.7;11.4;;;;;;;;;;;;;
2019/11/22 09:11:15;;;;;;;26.1;9.9;;;;;;;;;;;;;
2019/11/22 09:13:40;;;;;;;29.6;9.9;;;;;;;;;;;;;
2019/11/22 09:16:04;;;;;;;32;12.6;;;;;;;;;;;;;
2019/11/22 09:18:35;;;;;;;38.4;10.3;;;;;;;;;;;;;
2019/11/22 09:20:56;;;;;;;24.9;8.4;;;;;;;;;;;;;
2019/11/22 09:23:22;;;;;;;13.3;7.1;;;;;;;;;;;;;
2019/11/22 09:25:45;;;;;;;14;6.9;;;;;;;;;;;;;
2019/11/22 09:28:12;;;;;;;16;9.6;;;;;;;;;;;;;
2019/11/22 09:30:35;;;;;;;13.6;7.7;;;;;;;;;;;;;
2019/11/22 09:33:02;;;;;;;15.9;9;;;;;;;;;;;;;
2019/11/22 09:35:27;;;;;;;12.3;6.1;;;;;;;;;;;;;
2019/11/22 09:37:54;;;;;;;12;6;;;;;;;;;;;;;
2019/11/22 09:40:18;;;;;;;8.7;6.1;;;;;;;;;;;;;
2019/11/22 09:42:42;;;;;;;10.6;5.5;;;;;;;;;;;;;
2019/11/22 09:45:07;;;;;;;9.1;5.5;;;;;;;;;;;;;
2019/11/22 09:47:34;;;;;;;8.8;5.4;;;;;;;;;;;;;
2019/11/22 09:49:58;;;;;;;8.4;5.4;;;;;;;;;;;;;
2019/11/22 09:52:25;;;;;;;13.4;5.3;;;;;;;;;;;;;
2019/11/22 09:54:53;;;;;;;9;5.7;;;;;;;;;;;;;
2019/11/22 09:57:15;;;;;;;7.9;6.1;;;;;;;;;;;;;
2019/11/22 09:59:41;;;;;;;10.6;5.5;;;;;;;;;;;;;
2019/11/22 10:02:06;;;;;;;8;5.4;;;;;;;;;;;;;
2019/11/22 10:04:36;;;;;;;8.4;4.8;;;;;;;;;;;;;
2019/11/22 10:07:01;;;;;;;6.1;4.6;;;;;;;;;;;;;
2019/11/22 10:09:27;;;;;;;5.9;4.9;;;;;;;;;;;;;
2019/11/22 10:11:53;;;;;;;7.4;5.1;;;;;;;;;;;;;
2019/11/22 10:14:16;;;;;;;8.2;4.8;;;;;;;;;;;;;
2019/11/22 10:16:41;;;;;;;6.2;4.7;;;;;;;;;;;;;
2019/11/22 10:19:07;;;;;;;6.1;4.6;;;;;;;;;;;;;
2019/11/22 10:21:34;;;;;;;6.8;4.8;;;;;;;;;;;;;
2019/11/22 10:23:59;;;;;;;5.5;4.9;;;;;;;;;;;;;
2019/11/22 10:28:54;;;;;;;5.8;4.7;;;;;;;;;;;;;
2019/11/22 10:31:18;;;;;;;7.4;4.8;;;;;;;;;;;;;
2019/11/22 10:36:11;;;;;;;6.4;4.8;;;;;;;;;;;;;
2019/11/22 10:38:34;;;;;;;6.9;5.1;;;;;;;;;;;;;
2019/11/22 10:40:59;;;;;;;6.7;5.3;;;;;;;;;;;;;
2019/11/22 10:43:25;;;;;;;7.2;5.1;;;;;;;;;;;;;
2019/11/22 10:45:54;;;;;;;6.6;4.7;;;;;;;;;;;;;
2019/11/22 10:48:18;;;;;;;5.1;4.6;;;;;;;;;;;;;
2019/11/22 10:50:45;;;;;;;6.7;4.7;;;;;;;;;;;;;
2019/11/22 10:53:11;;;;;;;5.4;4.9;;;;;;;;;;;;;
2019/11/22 10:55:37;;;;;;;6.2;4.9;;;;;;;;;;;;;
2019/11/22 10:58:03;;;;;;;5.9;5.1;;;;;;;;;;;;;
2019/11/22 11:00:31;;;;;;;7.2;5.2;;;;;;;;;;;;;
2019/11/22 11:02:55;;;;;;;5.9;5.3;;;;;;;;;;;;;
2019/11/22 11:05:18;;;;;;;6.5;5.4;;;;;;;;;;;;;
2019/11/22 11:07:46;;;;;;;7.4;5.7;;;;;;;;;;;;;
2019/11/22 11:10:13;;;;;;;6.5;5.2;;;;;;;;;;;;;
2019/11/22 11:12:38;;;;;;;8.4;5.7;;;;;;;;;;;;;
2019/11/22 11:15:07;;;;;;;7.3;5.5;;;;;;;;;;;;;
2019/11/22 11:17:40;;;;;;;6.7;5.4;;;;;;;;;;;;;
2019/11/22 11:20:05;;;;;;;7.3;5;;;;;;;;;;;;;
2019/11/22 11:22:32;;;;;;;7.2;4.8;;;;;;;;;;;;;
2019/11/22 11:24:57;;;;;;;5.7;5.1;;;;;;;;;;;;;
2019/11/22 11:27:21;;;;;;;6.8;5.4;;;;;;;;;;;;;
2019/11/22 11:29:46;;;;;;;6.4;4.8;;;;;;;;;;;;;
2019/11/22 11:32:10;;;;;;;9.4;5.1;;;;;;;;;;;;;
2019/11/22 11:34:35;;;;;;;6.9;5.1;;;;;;;;;;;;;
2019/11/22 11:37:05;;;;;;;7.9;5.1;;;;;;;;;;;;;
2019/11/22 11:39:26;;;;;;;6.4;4.9;;;;;;;;;;;;;
2019/11/22 11:41:53;;;;;;;7.8;5.3;;;;;;;;;;;;;
2019/11/22 11:44:17;;;;;;;7.2;5.8;;;;;;;;;;;;;
2019/11/22 11:46:45;;;;;;;8.9;6;;;;;;;;;;;;;
2019/11/22 11:49:08;;;;;;;8.5;6.6;;;;;;;;;;;;;
2019/11/22 11:51:40;;;;;;;7.3;6;;;;;;;;;;;;;
2019/11/22 11:54:05;;;;;;;7.8;5.3;;;;;;;;;;;;;
2019/11/22 11:56:31;;;;;;;6.6;5.6;;;;;;;;;;;;;
2019/11/22 11:59:04;;;;;;;6.2;5.2;;;;;;;;;;;;;
2019/11/22 12:01:24;;;;;;;7.3;5.4;;;;;;;;;;;;;
2019/11/22 12:03:51;;;;;;;6.9;5.5;;;;;;;;;;;;;
2019/11/22 12:06:11;;;;;;;6.9;5.9;;;;;;;;;;;;;
2019/11/22 12:08:41;;;;;;;8.5;5.9;;;;;;;;;;;;;
2019/11/22 12:11:04;;;;;;;7.8;5.5;;;;;;;;;;;;;
2019/11/22 12:13:33;;;;;;;6.5;5.8;;;;;;;;;;;;;
2019/11/22 12:16:04;;;;;;;8.2;6;;;;;;;;;;;;;
2019/11/22 12:18:22;;;;;;;7;6.1;;;;;;;;;;;;;
2019/11/22 12:20:46;;;;;;;11.3;6.8;;;;;;;;;;;;;
2019/11/22 12:23:20;;;;;;;11;7.5;;;;;;;;;;;;;
2019/11/22 12:25:41;;;;;;;9.3;7.4;;;;;;;;;;;;;
2019/11/22 12:28:09;;;;;;;11.3;7.3;;;;;;;;;;;;;
2019/11/22 12:30:39;;;;;;;8.4;6.8;;;;;;;;;;;;;
2019/11/22 12:33:02;;;;;;;9.3;7.5;;;;;;;;;;;;;
2019/11/22 12:35:26;;;;;;;10;7.2;;;;;;;;;;;;;
2019/11/22 12:37:50;;;;;;;8.1;6.6;;;;;;;;;;;;;
2019/11/22 12:40:14;;;;;;;9.8;7.6;;;;;;;;;;;;;
2019/11/22 12:42:39;;;;;;;8.5;7.4;;;;;;;;;;;;;
2019/11/22 12:45:04;;;;;;;8;7.2;;;;;;;;;;;;;
2019/11/22 12:47:31;;;;;;;7.8;7;;;;;;;;;;;;;
2019/11/22 12:49:56;;;;;;;10;7.7;;;;;;;;;;;;;
2019/11/22 12:52:22;;;;;;;11.6;7.8;;;;;;;;;;;;;
2019/11/22 12:54:45;;;;;;;9.4;7.5;;;;;;;;;;;;;
2019/11/22 12:57:14;;;;;;;10;7.9;;;;;;;;;;;;;
2019/11/22 12:59:36;;;;;;;10.5;7.9;;;;;;;;;;;;;
2019/11/22 13:02:07;;;;;;;10.5;8.2;;;;;;;;;;;;;
2019/11/22 13:04:27;;;;;;;10.5;8.2;;;;;;;;;;;;;
2019/11/22 13:06:51;;;;;;;11.2;8.6;;;;;;;;;;;;;
2019/11/22 13:09:18;;;;;;;12;8.6;;;;;;;;;;;;;
2019/11/22 13:11:44;;;;;;;10.2;8.5;;;;;;;;;;;;;
2019/11/22 13:14:08;;;;;;;10.1;8.1;;;;;;;;;;;;;
2019/11/22 13:16:35;;;;;;;9.3;7.6;;;;;;;;;;;;;
2019/11/22 13:19:01;;;;;;;10.5;8.4;;;;;;;;;;;;;
2019/11/22 13:21:26;;;;;;;9.4;7.9;;;;;;;;;;;;;
2019/11/22 13:23:51;;;;;;;10;8.1;;;;;;;;;;;;;
2019/11/22 13:26:18;;;;;;;10;8.2;;;;;;;;;;;;;
2019/11/22 13:28:44;;;;;;;10.1;8.2;;;;;;;;;;;;;
2019/11/22 13:31:07;;;;;;;14.8;9.5;;;;;;;;;;;;;
2019/11/22 13:33:33;;;;;;;17.1;10.3;;;;;;;;;;;;;
2019/11/22 13:36:06;;;;;;;16;11.1;;;;;;;;;;;;;
2019/11/22 13:38:27;;;;;;;22.6;12.8;;;;;;;;;;;;;
2019/11/22 13:40:52;;;;;;;19.1;11.7;;;;;;;;;;;;;
2019/11/22 13:43:18;;;;;;;17.8;11.6;;;;;;;;;;;;;
2019/11/22 13:45:50;;;;;;;16.3;11.3;;;;;;;;;;;;;
2019/11/22 13:48:08;;;;;;;15.5;10.9;;;;;;;;;;;;;
2019/11/22 13:50:32;;;;;;;13.9;10;;;;;;;;;;;;;
2019/11/22 13:52:58;;;;;;;15.2;9.2;;;;;;;;;;;;;
2019/11/22 13:55:30;;;;;;;12.4;9.3;;;;;;;;;;;;;
2019/11/22 13:58:13;;;;;;;10.9;8.7;;;;;;;;;;;;;
2019/11/22 14:00:26;;;;;;;26;18.1;;;;;;;;;;;;;
2019/11/22 14:07:45;;;;;;;27.6;19.9;;;;;;;;;;;;;
2019/11/22 14:10:11;;;;;;;11.8;9;;;;;;;;;;;;;
2019/11/22 14:12:36;;;;;;;12.4;9.2;;;;;;;;;;;;;
2019/11/22 14:15:02;;;;;;;16;9.5;;;;;;;;;;;;;
2019/11/22 14:17:26;;;;;;;12.2;8.8;;;;;;;;;;;;;
2019/11/22 14:19:59;;;;;;;11.5;8.7;;;;;;;;;;;;;
2019/11/22 14:22:25;;;;;;;14.5;9.3;;;;;;;;;;;;;
2019/11/22 14:24:48;;;;;;;21.7;11.6;;;;;;;;;;;;;
2019/11/22 14:27:13;;;;;;;14.1;9.3;;;;;;;;;;;;;
2019/11/22 14:30:14;;;;;;;20.2;8.5;;;;;;;;;;;;;
2019/11/22 14:32:21;;;;;;;15.9;9.7;;;;;;;;;;;;;
2019/11/22 14:34:46;;;;;;;14.7;10;;;;;;;;;;;;;
2019/11/22 14:37:15;;;;;;;14.3;9.9;;;;;;;;;;;;;
2019/11/22 14:39:36;;;;;;;16.5;9.9;;;;;;;;;;;;;
2019/11/22 14:42:01;;;;;;;18.8;10.4;;;;;;;;;;;;;
2019/11/22 14:44:26;;;;;;;19.4;11.6;;;;;;;;;;;;;
2019/11/22 14:46:51;;;;;;;23.3;14.1;;;;;;;;;;;;;
2019/11/22 14:49:16;;;;;;;22.7;12.1;;;;;;;;;;;;;
2019/11/22 14:51:42;;;;;;;24.8;10.8;;;;;;;;;;;;;
2019/11/22 14:54:07;;;;;;;17.2;10.6;;;;;;;;;;;;;
2019/11/22 14:56:32;;;;;;;20.9;12.1;;;;;;;;;;;;;
2019/11/22 14:59:00;;;;;;;19.6;13.5;;;;;;;;;;;;;
2019/11/22 15:01:28;;;;;;;23.4;13.8;;;;;;;;;;;;;
2019/11/22 15:03:48;;;;;;;24.2;13.4;;;;;;;;;;;;;
2019/11/22 15:06:14;;;;;;;37.4;20.2;;;;;;;;;;;;;
2019/11/22 15:08:40;;;;;;;26.7;17;;;;;;;;;;;;;
2019/11/22 15:11:08;;;;;;;32.7;18.7;;;;;;;;;;;;;
2019/11/22 15:13:30;;;;;;;34.7;19.6;;;;;;;;;;;;;
2019/11/22 15:15:54;;;;;;;23.3;14.1;;;;;;;;;;;;;
2019/11/22 15:18:24;;;;;;;23.7;14;;;;;;;;;;;;;
2019/11/22 15:20:44;;;;;;;24.9;13.9;;;;;;;;;;;;;
2019/11/22 15:23:11;;;;;;;37.3;17.7;;;;;;;;;;;;;
2019/11/22 15:25:35;;;;;;;30.6;16.1;;;;;;;;;;;;;
2019/11/22 15:28:08;;;;;;;27;15.3;;;;;;;;;;;;;
2019/11/22 15:30:25;;;;;;;28.4;15.8;;;;;;;;;;;;;
2019/11/22 15:32:52;;;;;;;46.2;26.4;;;;;;;;;;;;;
2019/11/22 15:35:26;;;;;;;37.2;19.4;;;;;;;;;;;;;
2019/11/22 15:37:47;;;;;;;34.5;18.5;;;;;;;;;;;;;
2019/11/22 15:40:07;;;;;;;37;21.2;;;;;;;;;;;;;
2019/11/22 15:42:39;;;;;;;70.4;47.1;;;;;;;;;;;;;
2019/11/22 15:44:59;;;;;;;48;32.9;;;;;;;;;;;;;
2019/11/22 15:47:26;;;;;;;47.8;29.4;;;;;;;;;;;;;
2019/11/22 15:49:57;;;;;;;42.6;23;;;;;;;;;;;;;
2019/11/22 15:52:22;;;;;;;42.1;23.2;;;;;;;;;;;;;
2019/11/22 15:54:46;;;;;;;38.9;21.6;;;;;;;;;;;;;
2019/11/22 15:57:13;;;;;;;38.6;20.4;;;;;;;;;;;;;
2019/11/22 15:59:37;;;;;;;35.6;21.1;;;;;;;;;;;;;
2019/11/22 16:02:04;;;;;;;31.9;18.2;;;;;;;;;;;;;
2019/11/22 16:04:28;;;;;;;34.2;17.1;;;;;;;;;;;;;
2019/11/22 16:12:03;;;;;;;40;21.2;;;;;;;;;;;;;
2019/11/22 16:14:27;;;;;;;28.1;18.5;;;;;;;;;;;;;
2019/11/22 16:17:00;;;;;;;37.4;19;;;;;;;;;;;;;
2019/11/22 16:19:26;;;;;;;31.7;19.4;;;;;;;;;;;;;
2019/11/22 16:21:56;;;;;;;35.6;19.6;;;;;;;;;;;;;
2019/11/22 16:24:14;;;;;;;36.9;22.4;;;;;;;;;;;;;
2019/11/22 16:26:42;;;;;;;48.7;30.2;;;;;;;;;;;;;
2019/11/22 16:29:07;;;;;;;49.6;29.7;;;;;;;;;;;;;
2019/11/22 16:32:03;;;;;;;48.2;28.6;;;;;;;;;;;;;
2019/11/22 16:34:00;;;;;;;39.3;22.6;;;;;;;;;;;;;
2019/11/22 16:36:27;;;;;;;36.3;20.3;;;;;;;;;;;;;
2019/11/22 16:38:56;;;;;;;33.8;22.4;;;;;;;;;;;;;
2019/11/22 16:41:25;;;;;;;38.6;25.2;;;;;;;;;;;;;
2019/11/22 16:43:53;;;;;;;36.4;24.4;;;;;;;;;;;;;
2019/11/22 16:46:15;;;;;;;42.8;24.3;;;;;;;;;;;;;
2019/11/22 16:48:40;;;;;;;40.3;24.9;;;;;;;;;;;;;
2019/11/22 16:51:12;;;;;;;38.9;23.8;;;;;;;;;;;;;
2019/11/22 16:53:43;;;;;;;47;39.3;;;;;;;;;;;;;
2019/11/22 16:56:16;;;;;;;35.9;20.5;;;;;;;;;;;;;
2019/11/22 16:58:43;;;;;;;42.9;26.7;;;;;;;;;;;;;
2019/11/22 17:01:06;;;;;;;36.2;22.5;;;;;;;;;;;;;
2019/11/22 17:03:33;;;;;;;33;20;;;;;;;;;;;;;
2019/11/22 17:05:57;;;;;;;36.9;19.6;;;;;;;;;;;;;
2019/11/22 17:08:22;;;;;;;38.9;24.6;;;;;;;;;;;;;
2019/11/22 17:10:53;;;;;;;29.7;20.6;;;;;;;;;;;;;
2019/11/22 17:13:20;;;;;;;27.9;17.7;;;;;;;;;;;;;
2019/11/22 17:15:48;;;;;;;29.2;17.8;;;;;;;;;;;;;
2019/11/22 17:18:15;;;;;;;42.4;26.5;;;;;;;;;;;;;
2019/11/22 17:20:47;;;;;;;38.6;23.7;;;;;;;;;;;;;
2019/11/22 17:23:06;;;;;;;39.9;24.3;;;;;;;;;;;;;
2019/11/22 17:25:32;;;;;;;36.6;25.1;;;;;;;;;;;;;
2019/11/22 17:28:06;;;;;;;37.6;24.7;;;;;;;;;;;;;
2019/11/22 17:33:12;;;;;;;36.8;23.4;;;;;;;;;;;;;
2019/11/22 17:35:40;;;;;;;47.6;30;;;;;;;;;;;;;
2019/11/22 17:38:05;;;;;;;42.9;27.5;;;;;;;;;;;;;
2019/11/22 17:40:30;;;;;;;222.7;143.9;;;;;;;;;;;;;
2019/11/22 17:43:00;;;;;;;84.4;58.5;;;;;;;;;;;;;
2019/11/22 17:45:25;;;;;;;28.8;18.6;;;;;;;;;;;;;
2019/11/22 17:47:47;;;;;;;20.3;14.2;;;;;;;;;;;;;
2019/11/22 17:50:16;;;;;;;33.8;24.9;;;;;;;;;;;;;
2019/11/22 17:52:40;;;;;;;34.1;22.8;;;;;;;;;;;;;
2019/11/22 17:55:06;;;;;;;33.3;22.5;;;;;;;;;;;;;
2019/11/22 17:57:31;;;;;;;32.6;20.7;;;;;;;;;;;;;
2019/11/22 17:59:57;;;;;;;30.9;20.3;;;;;;;;;;;;;
2019/11/22 18:02:24;;;;;;;29.1;20.1;;;;;;;;;;;;;
2019/11/22 18:04:48;;;;;;;38.6;26.9;;;;;;;;;;;;;
2019/11/22 18:07:16;;;;;;;36.3;23.9;;;;;;;;;;;;;
2019/11/22 18:09:44;;;;;;;31.5;22.8;;;;;;;;;;;;;
2019/11/22 18:12:10;;;;;;;35.5;22.6;;;;;;;;;;;;;
2019/11/22 18:14:36;;;;;;;38.6;23.6;;;;;;;;;;;;;
2019/11/22 18:17:01;;;;;;;38;24.8;;;;;;;;;;;;;
2019/11/22 18:19:30;;;;;;;42.8;26.7;;;;;;;;;;;;;
2019/11/22 18:21:52;;;;;;;44;28.2;;;;;;;;;;;;;
2019/11/22 18:24:16;;;;;;;37.7;26;;;;;;;;;;;;;
2019/11/22 18:26:42;;;;;;;37;24.5;;;;;;;;;;;;;
2019/11/22 18:29:08;;;;;;;36.4;23.7;;;;;;;;;;;;;
2019/11/22 18:31:32;;;;;;;31.2;20.1;;;;;;;;;;;;;
2019/11/22 18:33:57;;;;;;;37.6;24.7;;;;;;;;;;;;;
2019/11/22 18:36:22;;;;;;;33.3;23.5;;;;;;;;;;;;;
2019/11/22 18:39:06;;;;;;;34;23.5;;;;;;;;;;;;;
2019/11/22 18:41:16;;;;;;;30.7;21.3;;;;;;;;;;;;;
2019/11/22 18:43:41;;;;;;;31.9;20.4;;;;;;;;;;;;;
2019/11/22 18:46:07;;;;;;;30.6;21.5;;;;;;;;;;;;;
2019/11/22 18:48:32;;;;;;;28.9;19.5;;;;;;;;;;;;;
2019/11/22 18:50:58;;;;;;;46.2;31.3;;;;;;;;;;;;;
2019/11/22 18:53:23;;;;;;;33.1;23.6;;;;;;;;;;;;;
2019/11/22 19:00:54;;;;;;;23;16.5;;;;;;;;;;;;;
2019/11/22 19:03:12;;;;;;;37.6;26.3;;;;;;;;;;;;;
2019/11/22 19:05:37;;;;;;;32.8;22.3;;;;;;;;;;;;;
2019/11/22 19:08:07;;;;;;;34.9;21.5;;;;;;;;;;;;;
2019/11/22 19:10:30;;;;;;;33.2;21.5;;;;;;;;;;;;;
2019/11/22 19:12:59;;;;;;;24.1;16.8;;;;;;;;;;;;;
2019/11/22 19:15:22;;;;;;;28.9;20.1;;;;;;;;;;;;;
2019/11/22 19:17:55;;;;;;;31.6;21.8;;;;;;;;;;;;;
2019/11/22 19:22:57;;;;;;;24.6;16.5;;;;;;;;;;;;;
2019/11/22 19:25:17;;;;;;;22;14.3;;;;;;;;;;;;;
2019/11/22 19:27:49;;;;;;;18.9;13.6;;;;;;;;;;;;;
2019/11/22 19:30:10;;;;;;;17.2;12.3;;;;;;;;;;;;;
2019/11/22 19:32:35;;;;;;;22.6;16;;;;;;;;;;;;;
2019/11/22 19:35:00;;;;;;;16.6;12.5;;;;;;;;;;;;;
2019/11/22 19:37:28;;;;;;;15.3;9.1;;;;;;;;;;;;;
2019/11/22 19:39:50;;;;;;;21.9;13.4;;;;;;;;;;;;;
2019/11/22 19:42:16;;;;;;;32.3;20.8;;;;;;;;;;;;;
2019/11/22 19:44:44;;;;;;;34.6;24.2;;;;;;;;;;;;;
2019/11/22 19:47:14;;;;;;;21.7;15.2;;;;;;;;;;;;;
2019/11/22 19:49:41;;;;;;;16.3;11;;;;;;;;;;;;;
2019/11/22 19:52:05;;;;;;;22.7;15.7;;;;;;;;;;;;;
2019/11/22 19:54:35;;;;;;;25.7;18.6;;;;;;;;;;;;;
2019/11/22 19:56:55;;;;;;;19;12.6;;;;;;;;;;;;;
2019/11/22 19:59:21;;;;;;;10.7;7.9;;;;;;;;;;;;;
2019/11/22 20:01:44;;;;;;;15.9;10.9;;;;;;;;;;;;;
2019/11/22 20:04:10;;;;;;;22.5;14.4;;;;;;;;;;;;;
2019/11/22 20:06:35;;;;;;;17;11.9;;;;;;;;;;;;;
2019/11/22 20:09:03;;;;;;;16.6;11.2;;;;;;;;;;;;;